Time;durP1;ratioP1;P1;durP2;ratioP2;P2;SDS_P1;SDS_P2;PMS_P1;PMS_P2;Temp;Humidity;BMP_temperature;BMP_pressure;BME280_temperature;BME280_humidity;BME280_pressure;Samples;Min_cycle;Max_cycle;Signal;HPM_P1;HPM_P2
2023/11/24 05:01:36;;;;;;;1.43;1.33;;;6.10;97.30;;;;;;5401282;23;20489;-86
2023/11/24 05:04:02;;;;;;;1.50;1.40;;;6.10;97.30;;;;;;4896877;29;20942;-86
2023/11/24 05:06:27;;;;;;;1.10;1.00;;;6.10;97.30;;;;;;4905320;29;20553;-85
2023/11/24 05:08:53;;;;;;;1.10;1.00;;;6.10;97.30;;;;;;4881543;29;20199;-86
2023/11/24 05:11:18;;;;;;;1.00;0.90;;;6.10;97.30;;;;;;4889967;29;20223;-86
2023/11/24 05:13:45;;;;;;;1.00;0.90;;;6.10;97.30;;;;;;4895905;29;20192;-85
2023/11/24 05:16:10;;;;;;;1.10;1.00;;;6.10;97.30;;;;;;4903799;29;20252;-84
2023/11/24 05:18:36;;;;;;;1.00;0.90;;;6.10;97.30;;;;;;4895553;29;20838;-85
2023/11/24 05:21:02;;;;;;;1.40;1.33;;;6.10;97.30;;;;;;4897963;29;20216;-88
2023/11/24 05:23:28;;;;;;;1.00;0.90;;;6.10;97.30;;;;;;4893163;29;20219;-85
2023/11/24 05:25:53;;;;;;;1.00;0.90;;;6.00;97.30;;;;;;4890188;29;20435;-88
2023/11/24 05:28:19;;;;;;;1.40;1.30;;;6.00;97.30;;;;;;4897779;29;20698;-85
2023/11/24 05:30:45;;;;;;;0.93;0.83;;;6.00;97.30;;;;;;4911679;29;20815;-84
2023/11/24 05:33:10;;;;;;;1.97;1.87;;;6.00;97.30;;;;;;4892943;29;20197;-85
2023/11/24 05:35:37;;;;;;;2.83;1.10;;;6.00;97.30;;;;;;4892435;29;20198;-85
2023/11/24 05:38:03;;;;;;;0.90;0.80;;;5.90;97.30;;;;;;4914647;29;20184;-85
2023/11/24 05:40:28;;;;;;;1.20;1.10;;;5.80;97.30;;;;;;4897778;29;20494;-84
2023/11/24 05:42:54;;;;;;;1.10;1.00;;;5.70;97.30;;;;;;4897482;29;20476;-85
2023/11/24 05:45:20;;;;;;;1.10;1.00;;;5.70;97.30;;;;;;4906971;29;20557;-87
2023/11/24 05:47:45;;;;;;;1.00;0.90;;;5.70;97.30;;;;;;4902329;29;20180;-87
2023/11/24 05:50:17;;;;;;;2.33;2.17;;;5.70;97.30;;;;;;4897673;29;20721;-87
2023/11/24 05:52:43;;;;;;;1.10;1.00;;;5.70;97.30;;;;;;4894677;29;20205;-85
2023/11/24 05:55:08;;;;;;;1.20;1.10;;;5.70;97.30;;;;;;4911071;29;20435;-87
2023/11/24 05:57:34;;;;;;;6.93;2.23;;;5.70;97.30;;;;;;4892994;29;20189;-89
2023/11/24 06:00:00;;;;;;;4.20;1.30;;;5.70;97.30;;;;;;4893064;29;20196;-88
2023/11/24 06:02:25;;;;;;;0.90;0.80;;;5.70;97.30;;;;;;4913904;29;20648;-87
2023/11/24 06:04:51;;;;;;;1.07;0.97;;;5.70;97.30;;;;;;4910960;29;20204;-87
2023/11/24 06:07:17;;;;;;;1.10;1.00;;;5.70;97.30;;;;;;4898047;29;20195;-85
2023/11/24 06:09:44;;;;;;;1.80;1.70;;;5.70;97.30;;;;;;4907182;29;20414;-86
2023/11/24 06:12:10;;;;;;;1.20;1.10;;;5.70;97.30;;;;;;4890499;29;20640;-87
2023/11/24 06:14:37;;;;;;;3.27;1.10;;;5.80;97.30;;;;;;4909821;29;20532;-86
2023/11/24 06:17:03;;;;;;;1.00;0.90;;;5.80;97.30;;;;;;4893179;29;21006;-85
2023/11/24 06:19:29;;;;;;;1.00;0.90;;;5.90;97.30;;;;;;4910506;29;20476;-85
2023/11/24 06:21:54;;;;;;;1.00;0.90;;;5.90;97.30;;;;;;4897002;29;20475;-85
2023/11/24 06:24:20;;;;;;;1.00;0.90;;;5.90;97.30;;;;;;4910047;29;20260;-85
2023/11/24 06:26:46;;;;;;;2.90;2.70;;;5.90;97.30;;;;;;4888963;29;20237;-88
2023/11/24 06:29:11;;;;;;;1.10;1.00;;;5.90;97.30;;;;;;4907878;29;20181;-88
2023/11/24 06:31:37;;;;;;;1.00;0.90;;;5.90;97.30;;;;;;4890565;29;20636;-85
2023/11/24 06:34:03;;;;;;;1.20;1.10;;;5.80;97.30;;;;;;4895769;29;20344;-87
2023/11/24 06:36:28;;;;;;;1.30;1.20;;;5.80;97.30;;;;;;4896411;29;20235;-87
2023/11/24 06:38:54;;;;;;;40.37;1.90;;;5.80;97.30;;;;;;4913952;29;20195;-88
2023/11/24 06:41:19;;;;;;;47.47;4.37;;;5.80;97.30;;;;;;4892538;29;20216;-86
2023/11/24 06:43:45;;;;;;;1.80;1.37;;;5.80;97.30;;;;;;4896328;29;20667;-85
2023/11/24 06:46:11;;;;;;;1.20;1.10;;;5.80;97.30;;;;;;4895325;29;20184;-86
2023/11/24 06:48:38;;;;;;;1.00;0.90;;;5.70;97.30;;;;;;4894922;29;20219;-85
2023/11/24 06:51:04;;;;;;;1.00;0.90;;;5.70;97.30;;;;;;4908549;29;20459;-87
2023/11/24 06:53:30;;;;;;;1.30;1.20;;;5.70;97.30;;;;;;4906281;29;20441;-85
2023/11/24 06:55:56;;;;;;;1.13;1.03;;;5.70;97.30;;;;;;4901828;29;20445;-85
2023/11/24 06:58:22;;;;;;;4.27;4.00;;;5.70;97.30;;;;;;4898456;29;20796;-88
2023/11/24 07:00:50;;;;;;;1.20;1.10;;;5.70;97.30;;;;;;4881827;29;20301;-88
2023/11/24 07:03:15;;;;;;;6.43;1.23;;;5.60;97.30;;;;;;4888064;29;20260;-87
2023/11/24 07:05:41;;;;;;;1.10;1.00;;;5.60;97.30;;;;;;4882626;29;20813;-87
2023/11/24 07:08:07;;;;;;;1.10;1.00;;;5.60;97.30;;;;;;4881207;29;20189;-87
2023/11/24 07:10:33;;;;;;;1.10;1.00;;;5.50;97.30;;;;;;4881465;29;20216;-87
2023/11/24 07:12:59;;;;;;;1.67;1.30;;;5.50;97.30;;;;;;4878456;29;20441;-87
2023/11/24 07:15:24;;;;;;;1.10;1.00;;;5.40;97.30;;;;;;4880851;29;20248;-84
2023/11/24 07:17:50;;;;;;;1.33;1.23;;;5.40;97.30;;;;;;4901644;29;20221;-87
2023/11/24 07:20:16;;;;;;;1.10;1.00;;;5.30;97.30;;;;;;4884919;29;20197;-86
2023/11/24 07:22:42;;;;;;;2.00;1.40;;;5.20;97.30;;;;;;4901636;29;20212;-87
2023/11/24 07:25:08;;;;;;;5.03;1.33;;;5.20;97.30;;;;;;4881243;29;20437;-87
2023/11/24 07:27:34;;;;;;;1.57;1.47;;;5.10;97.30;;;;;;4880719;29;20439;-85
2023/11/24 07:30:00;;;;;;;1.00;0.90;;;5.10;97.30;;;;;;4884768;29;20430;-87
2023/11/24 07:32:28;;;;;;;1.10;1.00;;;5.10;97.30;;;;;;4880943;29;20632;-88
2023/11/24 07:34:54;;;;;;;1.10;1.00;;;5.10;97.30;;;;;;4885122;29;20193;-86
2023/11/24 07:37:20;;;;;;;1.30;1.20;;;5.20;97.30;;;;;;4880592;29;20433;-87
2023/11/24 07:39:46;;;;;;;1.87;1.77;;;5.20;97.30;;;;;;4881065;29;20429;-86
2023/11/24 07:42:12;;;;;;;1.30;1.20;;;5.20;97.30;;;;;;4880443;29;20892;-87
2023/11/24 07:44:37;;;;;;;1.30;1.20;;;5.20;97.30;;;;;;4900743;29;20214;-88
2023/11/24 07:47:04;;;;;;;3.53;1.63;;;5.20;97.30;;;;;;4880521;29;20193;-86
2023/11/24 07:49:30;;;;;;;2.20;1.00;;;5.30;97.30;;;;;;4880231;29;20189;-87
2023/11/24 07:51:55;;;;;;;1.00;0.90;;;5.40;97.30;;;;;;4880207;29;20549;-86
2023/11/24 07:54:21;;;;;;;1.10;1.00;;;5.40;97.30;;;;;;4880364;29;20249;-87
2023/11/24 07:56:46;;;;;;;1.00;0.90;;;5.50;97.30;;;;;;4880186;29;20193;-86
2023/11/24 07:59:12;;;;;;;1.30;1.20;;;5.60;97.30;;;;;;4890223;29;20200;-87
2023/11/24 08:01:41;;;;;;;1.00;0.90;;;5.60;97.30;;;;;;4907342;29;20220;-84
2023/11/24 08:04:07;;;;;;;4.43;1.20;;;5.60;97.30;;;;;;4893631;29;20186;-86
2023/11/24 08:06:33;;;;;;;1.20;1.10;;;5.60;97.30;;;;;;4912631;29;20431;-86
2023/11/24 08:09:02;;;;;;;1.30;1.10;;;5.60;97.30;;;;;;4898129;29;20511;-87
2023/11/24 08:11:28;;;;;;;1.10;1.00;;;5.60;97.30;;;;;;4895698;29;21051;-84
2023/11/24 08:13:54;;;;;;;1.47;1.37;;;5.60;97.30;;;;;;4898588;29;20437;-86
2023/11/24 08:16:19;;;;;;;1.30;1.20;;;5.60;97.30;;;;;;4895372;29;20184;-87
2023/11/24 08:18:45;;;;;;;1.17;1.07;;;5.70;97.30;;;;;;4907863;29;20185;-85
2023/11/24 08:21:11;;;;;;;2.17;1.87;;;5.80;97.30;;;;;;4896715;29;20205;-85
2023/11/24 08:23:36;;;;;;;1.30;1.20;;;5.80;97.30;;;;;;4896234;29;20227;-86
2023/11/24 08:26:05;;;;;;;2.70;2.50;;;5.90;97.30;;;;;;4905802;29;20204;-85
2023/11/24 08:28:31;;;;;;;1.67;1.53;;;6.00;97.30;;;;;;4895796;29;20224;-87
2023/11/24 08:30:56;;;;;;;1.30;1.20;;;6.10;97.30;;;;;;4885825;29;20489;-86
2023/11/24 08:33:22;;;;;;;1.10;1.00;;;6.10;97.30;;;;;;4887561;29;20224;-86
2023/11/24 08:35:48;;;;;;;22.97;4.47;;;6.00;97.30;;;;;;4896354;29;20242;-87
2023/11/24 08:38:14;;;;;;;1.00;0.90;;;6.00;97.30;;;;;;4890604;29;20189;-87
2023/11/24 08:40:39;;;;;;;1.00;0.90;;;5.90;97.30;;;;;;4887062;29;20513;-85
2023/11/24 08:43:05;;;;;;;1.00;0.90;;;5.80;97.30;;;;;;4889390;29;20236;-88
2023/11/24 08:45:33;;;;;;;1.67;1.37;;;5.90;97.30;;;;;;4899916;29;20181;-88
2023/11/24 08:47:59;;;;;;;1.10;1.00;;;5.90;97.30;;;;;;4897476;29;20660;-84
2023/11/24 08:50:24;;;;;;;1.20;1.10;;;5.80;97.30;;;;;;4895634;29;20428;-87
2023/11/24 08:52:52;;;;;;;1.10;1.00;;;5.80;97.30;;;;;;4907159;29;20670;-87
2023/11/24 08:55:17;;;;;;;1.20;1.10;;;5.90;97.30;;;;;;4889528;29;20349;-88
2023/11/24 08:57:44;;;;;;;1.20;1.10;;;5.90;97.30;;;;;;4887416;29;20508;-84
2023/11/24 09:00:11;;;;;;;1.00;0.90;;;5.90;97.30;;;;;;4885507;29;20275;-84
2023/11/24 09:02:37;;;;;;;1.00;0.90;;;6.00;97.30;;;;;;4903643;29;20484;-85
2023/11/24 09:05:04;;;;;;;1.10;1.00;;;6.10;97.30;;;;;;4892612;29;20429;-87
2023/11/24 09:07:30;;;;;;;1.30;1.20;;;6.10;97.30;;;;;;4903503;29;20432;-85
2023/11/24 09:09:56;;;;;;;1.97;1.63;;;6.10;97.30;;;;;;4886058;29;20425;-85
2023/11/24 09:12:22;;;;;;;1.00;0.90;;;6.10;97.30;;;;;;4885377;29;20618;-86
2023/11/24 09:14:48;;;;;;;1.00;0.90;;;6.00;97.30;;;;;;4886709;29;20516;-85
2023/11/24 09:17:13;;;;;;;1.10;1.00;;;6.00;97.30;;;;;;4892422;29;20496;-87
2023/11/24 09:19:39;;;;;;;1.00;0.90;;;6.10;97.30;;;;;;4890435;29;20189;-87
2023/11/24 09:22:06;;;;;;;1.10;1.00;;;6.10;97.30;;;;;;4889036;29;20219;-85
2023/11/24 09:24:33;;;;;;;0.90;0.80;;;6.10;97.30;;;;;;4903437;29;20221;-87
2023/11/24 09:26:58;;;;;;;1.10;1.00;;;6.20;97.30;;;;;;4902793;29;21003;-86
2023/11/24 09:29:25;;;;;;;1.10;1.00;;;6.20;97.30;;;;;;4889934;29;20600;-88
2023/11/24 09:31:51;;;;;;;1.00;0.90;;;6.40;97.30;;;;;;4888786;29;20458;-86
2023/11/24 09:34:17;;;;;;;1.20;1.10;;;6.40;97.30;;;;;;4882000;29;20950;-86
2023/11/24 09:36:42;;;;;;;1.00;0.90;;;6.30;97.30;;;;;;4890776;29;20196;-85
2023/11/24 09:39:17;;;;;;;1.20;1.10;;;6.20;97.30;;;;;;4885561;29;20357;-86
2023/11/24 09:41:47;;;;;;;1.00;0.90;;;6.10;97.30;;;;;;4898399;29;20300;-82
2023/11/24 09:44:15;;;;;;;0.97;0.87;;;6.00;97.30;;;;;;4881852;29;20431;-82
2023/11/24 09:46:43;;;;;;;1.07;0.97;;;5.90;97.30;;;;;;4892202;29;20457;-87
2023/11/24 09:49:10;;;;;;;1.20;1.10;;;5.90;97.30;;;;;;4908642;29;20697;-86
2023/11/24 09:51:38;;;;;;;1.20;1.10;;;5.90;97.30;;;;;;4908799;29;20996;-87
2023/11/24 09:54:05;;;;;;;1.10;1.00;;;5.80;97.30;;;;;;4890245;29;20425;-86
2023/11/24 09:56:31;;;;;;;1.00;0.90;;;5.80;97.30;;;;;;4882062;29;20506;-86
2023/11/24 09:58:57;;;;;;;1.10;1.00;;;5.70;97.30;;;;;;4891673;29;20429;-84
2023/11/24 10:01:23;;;;;;;1.00;0.90;;;5.80;97.30;;;;;;4886638;29;20993;-87
2023/11/24 10:03:53;;;;;;;1.00;0.90;;;5.80;97.30;;;;;;4907148;29;20644;-87
2023/11/24 10:06:19;;;;;;;1.40;1.30;;;5.90;97.30;;;;;;4901644;29;20436;-86
2023/11/24 10:08:45;;;;;;;1.20;1.10;;;5.80;97.30;;;;;;4892654;29;20428;-86
2023/11/24 10:11:13;;;;;;;1.37;1.30;;;5.80;97.30;;;;;;4888863;29;20445;-86
2023/11/24 10:13:43;;;;;;;1.00;0.90;;;5.80;97.30;;;;;;4903658;29;20420;-86
2023/11/24 10:16:10;;;;;;;1.10;1.00;;;5.80;97.30;;;;;;4890750;29;20436;-85
2023/11/24 10:18:40;;;;;;;1.10;1.00;;;5.90;97.30;;;;;;4888144;29;20948;-84
2023/11/24 10:21:11;;;;;;;0.90;0.80;;;6.00;97.30;;;;;;4903029;29;20509;-85
2023/11/24 10:23:39;;;;;;;1.00;0.90;;;5.90;97.30;;;;;;4890773;29;20468;-85
2023/11/24 10:26:13;;;;;;;1.00;0.90;;;5.90;97.30;;;;;;4890603;29;20932;-85
2023/11/24 10:28:39;;;;;;;1.10;1.00;;;5.90;97.30;;;;;;4884266;29;20458;-87
2023/11/24 10:31:07;;;;;;;1.00;0.90;;;5.90;97.30;;;;;;4881834;29;20453;-87
2023/11/24 10:33:32;;;;;;;1.00;0.90;;;5.90;97.30;;;;;;4882969;29;20212;-88
2023/11/24 10:35:58;;;;;;;1.10;1.00;;;5.90;97.30;;;;;;4882299;29;20448;-87
2023/11/24 10:38:29;;;;;;;0.93;0.83;;;6.00;97.30;;;;;;4882166;29;20472;-85
2023/11/24 10:40:55;;;;;;;1.10;1.00;;;6.00;97.30;;;;;;4887614;29;20955;-86
2023/11/24 10:43:21;;;;;;;1.00;0.90;;;6.10;97.30;;;;;;4887549;29;20492;-87
2023/11/24 10:45:51;;;;;;;1.00;0.90;;;6.10;97.30;;;;;;4881981;29;20794;-86
2023/11/24 10:48:21;;;;;;;1.10;1.00;;;6.20;97.30;;;;;;4884339;29;20466;-87
2023/11/24 10:50:58;;;;;;;1.10;1.00;;;6.30;97.30;;;;;;4882136;29;20445;-88
2023/11/24 10:53:28;;;;;;;1.47;1.37;;;6.40;97.30;;;;;;4882167;29;20432;-86
2023/11/24 10:55:56;;;;;;;1.17;1.10;;;6.40;97.30;;;;;;4883704;29;20438;-88
2023/11/24 10:58:23;;;;;;;1.30;1.20;;;6.50;97.30;;;;;;4898671;29;21022;-87
2023/11/24 11:00:49;;;;;;;1.10;1.00;;;6.40;97.30;;;;;;4882134;29;20449;-87
2023/11/24 11:03:16;;;;;;;1.97;1.00;;;6.30;97.30;;;;;;4897465;29;20484;-86
2023/11/24 11:05:44;;;;;;;1.60;1.47;;;6.20;97.30;;;;;;4883401;29;20429;-88
2023/11/24 11:08:19;;;;;;;1.63;1.53;;;6.10;97.30;;;;;;4904555;29;20417;-85
2023/11/24 11:10:55;;;;;;;1.00;0.90;;;6.10;97.30;;;;;;4892514;29;20457;-86
2023/11/24 11:13:21;;;;;;;1.10;1.00;;;6.00;97.30;;;;;;4889053;29;20951;-88
2023/11/24 11:15:50;;;;;;;1.30;1.20;;;6.00;97.30;;;;;;4889306;29;20799;-87
2023/11/24 11:18:23;;;;;;;1.03;0.93;;;6.00;97.30;;;;;;4890236;29;20524;-87
2023/11/24 11:20:49;;;;;;;1.40;1.30;;;6.00;97.30;;;;;;4884484;29;20626;-88
2023/11/24 11:23:18;;;;;;;1.00;0.90;;;6.00;97.30;;;;;;4901720;29;20474;-87
2023/11/24 11:25:50;;;;;;;1.13;1.03;;;6.10;97.30;;;;;;4897225;29;20181;-87
2023/11/24 11:28:23;;;;;;;1.20;1.10;;;6.10;97.30;;;;;;4902093;29;20428;-86
2023/11/24 11:30:57;;;;;;;1.10;1.00;;;6.10;97.30;;;;;;4907769;29;21069;-88
2023/11/24 11:33:24;;;;;;;1.00;0.90;;;6.10;97.30;;;;;;4890203;29;20958;-85
2023/11/24 11:35:58;;;;;;;1.10;1.00;;;6.10;97.30;;;;;;4891598;29;20432;-87
2023/11/24 11:38:45;;;;;;;1.10;1.00;;;6.00;97.30;;;;;;4878538;29;20424;-86
2023/11/24 11:41:11;;;;;;;1.10;1.00;;;5.80;97.30;;;;;;4904559;29;20465;-85
2023/11/24 11:43:56;;;;;;;1.07;0.97;;;5.60;97.30;;;;;;4898265;29;20465;-87
2023/11/24 11:46:23;;;;;;;1.13;1.03;;;5.40;97.30;;;;;;4888838;29;20862;-87
2023/11/24 11:48:49;;;;;;;1.20;1.10;;;5.20;97.30;;;;;;4894436;29;20802;-88
2023/11/24 11:51:18;;;;;;;1.10;1.00;;;5.10;97.30;;;;;;4888411;29;20480;-88
2023/11/24 11:53:44;;;;;;;1.00;0.90;;;4.90;97.30;;;;;;4887274;29;20990;-84
2023/11/24 11:56:11;;;;;;;1.10;1.00;;;4.80;97.30;;;;;;4902128;29;20927;-88
2023/11/24 11:58:40;;;;;;;1.33;1.23;;;4.70;97.30;;;;;;4883639;29;20487;-88
2023/11/24 12:01:06;;;;;;;1.10;1.00;;;4.60;97.30;;;;;;4897447;29;20445;-87
2023/11/24 12:03:33;;;;;;;1.10;1.00;;;4.70;97.30;;;;;;4880369;29;20486;-88
2023/11/24 12:06:05;;;;;;;1.10;1.00;;;4.70;97.30;;;;;;4902631;29;20503;-86
2023/11/24 12:08:31;;;;;;;1.57;1.47;;;4.70;97.30;;;;;;4879833;29;20442;-87
2023/11/24 12:10:57;;;;;;;1.07;0.97;;;4.60;97.30;;;;;;4896213;29;20993;-87
2023/11/24 12:13:24;;;;;;;0.90;0.80;;;4.60;97.30;;;;;;4879130;29;20443;-88
2023/11/24 12:15:51;;;;;;;1.00;0.90;;;4.60;97.30;;;;;;4879047;29;20193;-87
2023/11/24 12:18:17;;;;;;;1.20;1.10;;;4.50;97.30;;;;;;4884376;29;20430;-87
2023/11/24 12:20:45;;;;;;;4.53;1.30;;;4.50;97.30;;;;;;4881274;29;20968;-87
2023/11/24 12:23:13;;;;;;;1.70;1.60;;;4.50;97.30;;;;;;4895579;29;21000;-87
2023/11/24 12:25:39;;;;;;;1.63;1.53;;;4.50;97.30;;;;;;4884465;29;20422;-87
2023/11/24 12:28:09;;;;;;;1.10;1.00;;;4.50;97.30;;;;;;4879720;29;20431;-88
2023/11/24 12:30:41;;;;;;;1.10;1.00;;;4.50;97.30;;;;;;4879541;29;20541;-88
2023/11/24 12:33:08;;;;;;;1.00;0.90;;;4.50;97.30;;;;;;4885604;29;20450;-87
2023/11/24 12:35:33;;;;;;;1.20;1.10;;;4.50;97.30;;;;;;4896144;29;20439;-87
2023/11/24 12:37:59;;;;;;;1.20;1.10;;;4.50;97.30;;;;;;4880884;29;20518;-86
2023/11/24 12:40:27;;;;;;;1.20;1.10;;;4.60;97.30;;;;;;4881098;29;20194;-88
2023/11/24 12:42:58;;;;;;;1.10;1.00;;;4.60;97.30;;;;;;4887130;29;20216;-88
2023/11/24 12:45:25;;;;;;;3.13;2.87;;;4.70;97.30;;;;;;4886456;29;21041;-88
2023/11/24 12:47:51;;;;;;;1.00;0.90;;;4.70;97.30;;;;;;4887732;29;20462;-88
2023/11/24 12:50:17;;;;;;;3.97;1.93;;;4.70;97.30;;;;;;4886849;29;20434;-88
2023/11/24 12:52:44;;;;;;;1.00;0.90;;;4.60;97.30;;;;;;4885348;29;20206;-88
2023/11/24 12:55:11;;;;;;;1.00;0.90;;;4.50;97.30;;;;;;4904004;29;20533;-87
2023/11/24 12:57:38;;;;;;;1.00;0.90;;;4.40;97.30;;;;;;4891120;29;20418;-87
2023/11/24 13:00:13;;;;;;;0.90;0.80;;;4.40;97.30;;;;;;4888633;29;20817;-86
2023/11/24 13:02:42;;;;;;;1.10;1.00;;;4.40;97.30;;;;;;4894447;29;20544;-87
2023/11/24 13:05:09;;;;;;;1.00;0.90;;;4.40;97.30;;;;;;4884854;29;20445;-89
2023/11/24 13:07:41;;;;;;;1.10;1.00;;;4.40;97.30;;;;;;4884781;29;20437;-87
2023/11/24 13:10:10;;;;;;;1.00;0.90;;;4.50;97.30;;;;;;4882394;29;20946;-87
2023/11/24 13:12:39;;;;;;;1.20;1.10;;;4.50;97.30;;;;;;4882615;29;21051;-87
2023/11/24 13:15:09;;;;;;;2.10;1.10;;;4.50;97.30;;;;;;4885155;29;20488;-88
2023/11/24 13:17:35;;;;;;;1.10;1.00;;;4.50;97.30;;;;;;4882000;29;20524;-88
2023/11/24 13:20:00;;;;;;;1.03;0.93;;;4.70;97.30;;;;;;4897222;29;20448;-88
2023/11/24 13:22:26;;;;;;;1.00;0.90;;;5.00;97.30;;;;;;4897343;29;20979;-86
2023/11/24 13:24:53;;;;;;;1.20;1.10;;;5.00;97.30;;;;;;4881052;29;20216;-87
2023/11/24 13:27:19;;;;;;;1.30;1.20;;;5.00;97.30;;;;;;4880605;29;20433;-87
2023/11/24 13:29:44;;;;;;;1.00;0.90;;;5.10;97.30;;;;;;4898142;29;20456;-87
2023/11/24 13:32:11;;;;;;;1.10;1.00;;;5.10;97.30;;;;;;4904707;29;20713;-87
2023/11/24 13:34:38;;;;;;;1.20;1.10;;;5.20;97.30;;;;;;4881060;29;20193;-86
2023/11/24 13:37:04;;;;;;;1.13;1.03;;;5.60;97.30;;;;;;4880498;29;20425;-87
2023/11/24 13:39:29;;;;;;;1.40;1.30;;;6.00;97.30;;;;;;4880294;29;20531;-88
2023/11/24 13:41:56;;;;;;;0.90;0.80;;;6.50;97.30;;;;;;4896627;29;21124;-88
2023/11/24 13:44:23;;;;;;;1.00;0.90;;;6.70;97.30;;;;;;4896674;29;20201;-88
2023/11/24 13:46:56;;;;;;;0.90;0.80;;;6.80;97.30;;;;;;4880380;29;20781;-87
2023/11/24 13:49:22;;;;;;;1.57;1.47;;;6.90;97.30;;;;;;4879995;29;20944;-89
2023/11/24 13:51:48;;;;;;;9.00;1.77;;;6.70;97.30;;;;;;4879557;29;20453;-88
2023/11/24 13:54:15;;;;;;;3.27;1.40;;;6.40;97.30;;;;;;4881429;29;20966;-87
2023/11/24 13:56:44;;;;;;;1.00;0.90;;;6.40;97.30;;;;;;4885657;29;20436;-87
2023/11/24 13:59:14;;;;;;;1.13;1.03;;;6.50;97.30;;;;;;4906255;29;20954;-87
2023/11/24 14:01:44;;;;;;;1.00;0.90;;;6.60;97.30;;;;;;4882734;29;20485;-87
2023/11/24 14:04:11;;;;;;;0.90;0.80;;;6.60;97.30;;;;;;4883076;29;20422;-86
2023/11/24 14:06:41;;;;;;;1.67;1.40;;;6.50;97.30;;;;;;4900221;29;20425;-88
2023/11/24 14:09:20;;;;;;;1.57;1.10;;;6.40;97.30;;;;;;4883272;29;20464;-87
2023/11/24 14:11:53;;;;;;;0.90;0.80;;;6.20;97.30;;;;;;4899853;29;20452;-87
2023/11/24 14:14:19;;;;;;;0.90;0.80;;;5.90;97.30;;;;;;4883376;29;20465;-87
2023/11/24 14:16:46;;;;;;;1.20;1.10;;;5.90;97.30;;;;;;4899924;29;20784;-87
2023/11/24 14:19:12;;;;;;;1.00;0.90;;;5.90;97.30;;;;;;4883518;29;20429;-86
2023/11/24 14:21:39;;;;;;;1.30;1.20;;;5.80;97.30;;;;;;4877284;29;20545;-87
2023/11/24 14:24:06;;;;;;;1.00;0.90;;;5.70;97.30;;;;;;4908081;29;20439;-85
2023/11/24 14:26:35;;;;;;;1.00;0.90;;;5.60;97.30;;;;;;4883002;29;20444;-88
2023/11/24 14:29:04;;;;;;;1.47;1.37;;;5.50;97.30;;;;;;4882509;29;20452;-88
2023/11/24 14:31:32;;;;;;;1.23;1.13;;;5.30;97.30;;;;;;4882245;29;20453;-86
2023/11/24 14:34:00;;;;;;;1.00;0.90;;;5.20;97.30;;;;;;4882422;29;20440;-88
2023/11/24 14:36:27;;;;;;;1.20;1.10;;;5.00;97.30;;;;;;4891884;29;20433;-87
2023/11/24 14:38:53;;;;;;;1.20;1.10;;;5.00;97.30;;;;;;4897944;29;20429;-87
2023/11/24 14:41:19;;;;;;;1.00;0.90;;;5.00;97.30;;;;;;4882063;29;20472;-87
2023/11/24 14:43:47;;;;;;;2.73;1.20;;;4.90;97.30;;;;;;4882031;29;20477;-87
2023/11/24 14:46:12;;;;;;;1.73;1.63;;;4.80;97.30;;;;;;4882331;29;20501;-86
2023/11/24 14:48:38;;;;;;;1.90;1.43;;;4.70;97.30;;;;;;4888015;29;20428;-87
2023/11/24 14:51:05;;;;;;;1.00;0.90;;;4.70;97.30;;;;;;4884214;29;20827;-87
2023/11/24 14:53:32;;;;;;;0.90;0.80;;;4.30;97.30;;;;;;4881975;29;20412;-89
2023/11/24 14:55:58;;;;;;;1.10;1.00;;;3.70;97.30;;;;;;4881787;29;20441;-90
2023/11/24 14:58:24;;;;;;;1.03;0.93;;;3.10;97.30;;;;;;4881722;29;20437;-89
2023/11/24 15:00:49;;;;;;;1.10;1.00;;;2.80;97.30;;;;;;4888003;29;20220;-88
2023/11/24 15:03:15;;;;;;;1.20;1.10;;;2.50;97.30;;;;;;4882238;29;20289;-88
2023/11/24 15:05:45;;;;;;;1.40;1.30;;;2.40;97.30;;;;;;4898058;29;20189;-89
2023/11/24 15:08:11;;;;;;;1.40;1.30;;;2.20;97.30;;;;;;4887311;29;20450;-89
2023/11/24 15:10:40;;;;;;;1.10;1.00;;;2.20;97.30;;;;;;4881108;29;20936;-89
2023/11/24 15:13:07;;;;;;;1.40;1.30;;;2.10;97.30;;;;;;4883754;29;20528;-85
2023/11/24 15:15:43;;;;;;;1.10;1.00;;;2.00;97.30;;;;;;4899848;29;20426;-85
2023/11/24 15:18:10;;;;;;;1.10;1.00;;;1.90;97.30;;;;;;4886307;29;20425;-88
2023/11/24 15:20:45;;;;;;;1.20;1.10;;;1.90;97.30;;;;;;4883195;29;20493;-84
2023/11/24 15:23:12;;;;;;;2.80;2.60;;;1.80;97.30;;;;;;4890607;29;20500;-88
2023/11/24 15:25:47;;;;;;;1.20;1.10;;;1.70;97.30;;;;;;4899375;29;20421;-85
2023/11/24 15:28:19;;;;;;;1.20;1.10;;;1.60;97.30;;;;;;4903337;29;20432;-87
2023/11/24 15:30:45;;;;;;;1.00;0.90;;;1.70;97.30;;;;;;4886487;29;20454;-87
2023/11/24 15:33:12;;;;;;;1.10;1.00;;;1.70;97.30;;;;;;4880449;29;20545;-88
2023/11/24 15:35:38;;;;;;;1.10;1.00;;;1.80;97.30;;;;;;4880562;29;20485;-88
2023/11/24 15:38:03;;;;;;;1.30;1.20;;;1.80;97.30;;;;;;4897664;29;20429;-89
2023/11/24 15:40:29;;;;;;;1.10;1.00;;;1.90;97.30;;;;;;4881261;29;20648;-88
2023/11/24 15:42:54;;;;;;;1.30;1.20;;;1.90;97.30;;;;;;4880795;29;20240;-88
2023/11/24 15:45:21;;;;;;;1.87;1.40;;;1.90;97.30;;;;;;4879876;29;20284;-87
2023/11/24 15:47:50;;;;;;;1.10;1.00;;;1.90;97.30;;;;;;4881783;29;20188;-87
2023/11/24 15:50:19;;;;;;;1.07;0.97;;;1.90;97.30;;;;;;4882394;29;20913;-85
2023/11/24 15:52:44;;;;;;;1.40;1.30;;;1.90;97.30;;;;;;4899282;29;20536;-86
2023/11/24 15:55:13;;;;;;;1.30;1.20;;;1.90;97.30;;;;;;4886868;29;20497;-81
2023/11/24 15:57:39;;;;;;;1.10;1.00;;;1.90;97.30;;;;;;4884027;29;20215;-83
2023/11/24 16:00:16;;;;;;;1.10;1.00;;;1.90;97.30;;;;;;4881552;29;20445;-87
2023/11/24 16:02:42;;;;;;;1.10;1.00;;;1.90;97.30;;;;;;4881186;29;20789;-85
2023/11/24 16:05:08;;;;;;;1.00;0.90;;;2.00;97.30;;;;;;4883272;29;20425;-86
2023/11/24 16:07:34;;;;;;;1.20;1.10;;;2.00;97.30;;;;;;4902860;29;20457;-85
2023/11/24 16:10:13;;;;;;;1.00;0.90;;;2.00;97.30;;;;;;4892011;29;20297;-85
2023/11/24 16:12:43;;;;;;;1.10;1.00;;;2.00;97.30;;;;;;4875971;29;20453;-86
2023/11/24 16:15:15;;;;;;;1.10;1.00;;;2.00;97.30;;;;;;4880474;29;20439;-87
2023/11/24 16:17:42;;;;;;;1.10;1.00;;;2.00;97.30;;;;;;4881923;29;20473;-87
2023/11/24 16:20:08;;;;;;;1.10;1.00;;;2.00;97.30;;;;;;4878644;29;20478;-86
2023/11/24 16:22:34;;;;;;;1.63;1.53;;;2.00;97.30;;;;;;4896284;29;20469;-88
2023/11/24 16:25:00;;;;;;;1.10;1.00;;;2.00;97.30;;;;;;4879286;29;20429;-87
2023/11/24 16:27:26;;;;;;;1.10;1.00;;;2.10;97.30;;;;;;4879933;29;20654;-88
2023/11/24 16:29:52;;;;;;;1.27;1.17;;;2.10;97.30;;;;;;4879530;29;20520;-89
2023/11/24 16:32:19;;;;;;;1.10;1.00;;;2.20;97.30;;;;;;4879447;29;20221;-87
2023/11/24 16:34:44;;;;;;;2.13;1.97;;;2.20;97.30;;;;;;4880686;29;20194;-89
2023/11/24 16:37:10;;;;;;;1.30;1.20;;;2.20;97.30;;;;;;4896335;29;20946;-88
2023/11/24 16:39:36;;;;;;;1.00;0.90;;;2.30;97.30;;;;;;4896194;29;20181;-87
2023/11/24 16:42:01;;;;;;;1.47;1.37;;;2.30;97.30;;;;;;4879467;29;21033;-87
2023/11/24 16:44:27;;;;;;;2.93;1.20;;;2.40;97.30;;;;;;4882000;29;20193;-87
2023/11/24 16:46:57;;;;;;;1.43;1.33;;;2.40;97.30;;;;;;4879758;29;20200;-91
2023/11/24 16:49:23;;;;;;;1.33;1.23;;;2.50;97.30;;;;;;4896196;29;20192;-89
2023/11/24 16:51:49;;;;;;;1.53;1.43;;;2.60;97.30;;;;;;4902123;29;20448;-88
2023/11/24 16:54:14;;;;;;;1.43;1.33;;;2.60;97.30;;;;;;4902835;29;20659;-88
2023/11/24 16:56:40;;;;;;;1.30;1.20;;;2.70;97.30;;;;;;4876317;29;20685;-88
2023/11/24 16:59:07;;;;;;;1.10;1.00;;;2.70;97.30;;;;;;4879380;29;20277;-87
2023/11/24 17:01:32;;;;;;;1.30;1.20;;;2.70;97.30;;;;;;4884063;29;20765;-88
2023/11/24 17:04:00;;;;;;;1.10;1.00;;;2.70;97.30;;;;;;4900440;29;20532;-88
2023/11/24 17:06:26;;;;;;;1.10;1.00;;;2.50;97.30;;;;;;4886052;29;20185;-87
2023/11/24 17:08:52;;;;;;;1.20;1.10;;;2.30;97.30;;;;;;4892571;29;20726;-87
2023/11/24 17:11:17;;;;;;;1.10;1.00;;;2.20;97.30;;;;;;4892771;29;20448;-88
2023/11/24 17:13:43;;;;;;;1.00;0.90;;;2.10;97.30;;;;;;4883262;29;20184;-87
2023/11/24 17:16:10;;;;;;;1.90;1.40;;;2.00;97.30;;;;;;4888626;29;20272;-89
2023/11/24 17:18:37;;;;;;;1.40;1.30;;;2.00;97.30;;;;;;4888623;29;20185;-89
2023/11/24 17:21:03;;;;;;;1.20;1.10;;;1.90;97.30;;;;;;4906750;29;20478;-88
2023/11/24 17:23:29;;;;;;;1.30;1.20;;;1.80;97.30;;;;;;4882867;29;20560;-85
2023/11/24 17:25:55;;;;;;;1.20;1.10;;;1.70;97.30;;;;;;4896956;29;20445;-89
2023/11/24 17:28:21;;;;;;;1.20;1.10;;;1.70;97.30;;;;;;4891923;29;20428;-87
2023/11/24 17:30:46;;;;;;;1.20;1.10;;;1.60;97.30;;;;;;4899899;29;20615;-88
2023/11/24 17:33:12;;;;;;;1.20;1.10;;;1.60;97.30;;;;;;4895835;29;20188;-86
2023/11/24 17:35:37;;;;;;;1.10;1.00;;;1.60;97.30;;;;;;4911472;29;20188;-89
2023/11/24 17:38:03;;;;;;;1.20;1.10;;;1.60;97.30;;;;;;4909319;29;20220;-89
2023/11/24 17:40:29;;;;;;;1.57;1.47;;;1.60;97.30;;;;;;4910871;29;20839;-88
2023/11/24 17:42:54;;;;;;;1.10;1.00;;;1.70;97.30;;;;;;4896606;29;20236;-89
2023/11/24 17:45:22;;;;;;;1.20;1.10;;;1.60;97.30;;;;;;4910055;29;20932;-88
2023/11/24 17:47:49;;;;;;;1.10;1.00;;;1.60;97.30;;;;;;4886387;29;20556;-88
2023/11/24 17:50:21;;;;;;;1.30;1.20;;;1.60;97.30;;;;;;4901302;29;20449;-87
2023/11/24 17:52:50;;;;;;;1.30;1.20;;;1.50;97.30;;;;;;4895407;29;20441;-87
2023/11/24 17:55:17;;;;;;;1.00;0.90;;;1.50;97.30;;;;;;4892489;29;20424;-88
2023/11/24 17:57:43;;;;;;;1.10;1.00;;;1.40;97.30;;;;;;4884305;29;20947;-87